Time;durP1;ratioP1;P1;durP2;ratioP2;P2;SDS_P1;SDS_P2;PMS_P1;PMS_P2;Temp;Humidity;BMP_temperature;BMP_pressure;BME280_temperature;BME280_humidity;BME280_pressure;Samples;Min_cycle;Max_cycle;Signal;HPM_P1;HPM_P2
2023/04/16 00:00:33;;;;;;;17.75;9.43;;;;;;;4.40;100.00;98061.56;3240234;22;20020;-77
2023/04/16 00:02:09;;;;;;;19.45;9.95;;;;;;;4.42;100.00;98059.81;3239865;22;20103;-78
2023/04/16 00:03:24;;;;;;;19.40;10.18;;;;;;;4.49;100.00;98058.88;3239930;22;20024;-78
2023/04/16 00:04:40;;;;;;;15.38;9.63;;;;;;;4.65;100.00;98059.56;3222725;23;20122;-78
2023/04/16 00:05:56;;;;;;;16.13;9.60;;;;;;;4.65;100.00;98063.03;3229698;22;20031;-77
2023/04/16 00:07:11;;;;;;;17.10;9.40;;;;;;;4.52;100.00;98056.25;3239994;22;20027;-78
2023/04/16 00:08:27;;;;;;;15.98;8.60;;;;;;;4.24;100.00;98061.69;3240005;22;20023;-77
2023/04/16 00:09:42;;;;;;;14.85;8.85;;;;;;;4.23;100.00;98063.41;3239822;22;20069;-77
2023/04/16 00:10:58;;;;;;;16.13;8.98;;;;;;;4.10;100.00;98064.38;3240735;22;20011;-77
2023/04/16 00:12:13;;;;;;;17.90;8.45;;;;;;;3.94;100.00;98066.25;3239698;22;20062;-78
2023/04/16 00:13:29;;;;;;;17.58;9.63;;;;;;;4.13;100.00;98066.97;3240636;22;20515;-78
2023/04/16 00:14:45;;;;;;;17.63;9.38;;;;;;;4.07;100.00;98067.88;3240108;22;20027;-77
2023/04/16 00:16:00;;;;;;;17.60;9.65;;;;;;;4.11;100.00;98066.09;3223305;23;20365;-77
2023/04/16 00:17:16;;;;;;;18.25;10.15;;;;;;;4.33;100.00;98064.22;3229866;22;20320;-77
2023/04/16 00:18:31;;;;;;;15.15;9.07;;;;;;;4.05;100.00;98067.03;3240231;22;20407;-77
2023/04/16 00:19:47;;;;;;;21.08;10.07;;;;;;;4.08;100.00;98066.13;3223541;23;20644;-77
2023/04/16 00:21:02;;;;;;;17.25;9.52;;;;;;;4.02;100.00;98072.22;3230146;22;20031;-78
2023/04/16 00:22:18;;;;;;;16.02;9.23;;;;;;;3.87;100.00;98069.75;3240056;22;20034;-77
2023/04/16 00:23:34;;;;;;;17.65;9.50;;;;;;;3.87;100.00;98072.31;3240585;22;20352;-77
2023/04/16 00:24:49;;;;;;;18.80;9.20;;;;;;;3.92;100.00;98076.63;3240330;22;20019;-77
2023/04/16 00:26:05;;;;;;;17.00;8.73;;;;;;;3.70;100.00;98075.91;3239958;22;20518;-77
2023/04/16 00:27:21;;;;;;;20.52;10.10;;;;;;;3.80;100.00;98074.09;3240109;22;20026;-77
2023/04/16 00:28:36;;;;;;;17.40;8.60;;;;;;;3.43;100.00;98077.78;3239782;22;20042;-78
2023/04/16 00:29:52;;;;;;;14.48;8.32;;;;;;;3.36;100.00;98079.53;3240215;22;20028;-78
2023/04/16 00:31:07;;;;;;;16.67;8.95;;;;;;;3.51;100.00;98080.31;3240247;22;20539;-78
2023/04/16 00:32:23;;;;;;;16.27;8.95;;;;;;;3.41;100.00;98076.03;3240016;22;20024;-78
2023/04/16 00:33:38;;;;;;;17.08;9.40;;;;;;;3.53;100.00;98078.56;3240112;22;20047;-77
2023/04/16 00:34:54;;;;;;;15.38;8.30;;;;;;;3.55;100.00;98079.41;3240855;22;20020;-77
2023/04/16 00:36:10;;;;;;;17.60;9.07;;;;;;;3.66;100.00;98076.78;3241124;22;20015;-79
2023/04/16 00:37:25;;;;;;;15.75;8.30;;;;;;;3.75;100.00;98079.31;3240023;22;20053;-77
2023/04/16 00:38:41;;;;;;;16.05;8.50;;;;;;;3.68;100.00;98077.63;3240140;22;20444;-77
2023/04/16 00:39:56;;;;;;;15.75;8.50;;;;;;;3.60;100.00;98076.81;3240316;22;20024;-78
2023/04/16 00:41:12;;;;;;;16.45;8.70;;;;;;;3.49;100.00;98077.75;3239054;22;20027;-77
2023/04/16 00:42:27;;;;;;;16.65;8.23;;;;;;;3.49;100.00;98076.88;3239799;22;20020;-77
2023/04/16 00:43:43;;;;;;;15.25;8.00;;;;;;;3.58;100.00;98075.97;3239841;22;20023;-77
2023/04/16 00:44:58;;;;;;;17.88;8.52;;;;;;;3.48;100.00;98083.78;3240050;22;20357;-77
2023/04/16 00:46:22;;;;;;;17.90;8.77;;;;;;;3.34;100.00;98075.22;3239955;22;20023;-78
2023/04/16 00:47:38;;;;;;;13.70;7.90;;;;;;;3.29;100.00;98076.97;3239992;22;20066;-78
2023/04/16 00:48:54;;;;;;;16.55;7.97;;;;;;;3.24;100.00;98080.44;3239773;22;20024;-77
2023/04/16 00:50:11;;;;;;;14.15;8.05;;;;;;;3.29;100.00;98076.97;3239764;22;20031;-77
2023/04/16 00:51:26;;;;;;;15.80;9.20;;;;;;;3.46;100.00;98077.75;3239907;22;20027;-77
2023/04/16 00:52:42;;;;;;;15.32;8.63;;;;;;;3.43;100.00;98075.19;3239730;22;20020;-77
2023/04/16 00:53:58;;;;;;;12.00;7.00;;;;;;;3.46;100.00;98074.31;3239602;22;20042;-77
2023/04/16 00:55:16;;;;;;;15.65;7.90;;;;;;;3.35;100.00;98077.81;3239593;22;20024;-77
2023/04/16 00:56:32;;;;;;;16.00;8.57;;;;;;;3.38;100.00;98074.34;3239738;22;20069;-76
2023/04/16 00:57:48;;;;;;;16.20;8.90;;;;;;;3.36;100.00;98079.53;3240134;22;20055;-76
2023/04/16 00:59:03;;;;;;;15.23;8.50;;;;;;;3.23;100.00;98083.91;3240241;22;20019;-77
2023/04/16 01:00:20;;;;;;;15.18;9.02;;;;;;;3.27;100.00;98078.72;3239930;22;20024;-77
2023/04/16 01:01:35;;;;;;;14.52;8.60;;;;;;;3.05;100.00;98081.38;3239717;22;20020;-78
2023/04/16 01:02:53;;;;;;;16.08;8.50;;;;;;;3.20;100.00;98083.06;3240118;22;20455;-77
2023/04/16 01:04:08;;;;;;;18.15;8.32;;;;;;;3.09;100.00;98073.59;3223085;23;20500;-77
2023/04/16 01:05:25;;;;;;;16.50;8.73;;;;;;;3.05;100.00;98079.66;3230751;22;20036;-76
2023/04/16 01:06:40;;;;;;;17.00;8.27;;;;;;;3.03;100.00;98083.09;3239757;22;20091;-77
2023/04/16 01:07:59;;;;;;;14.13;8.32;;;;;;;3.28;100.00;98080.44;3238731;22;20360;-76
2023/04/16 01:09:15;;;;;;;16.20;8.27;;;;;;;3.15;100.00;98085.66;3239951;22;20043;-76
2023/04/16 01:10:31;;;;;;;15.70;8.80;;;;;;;3.18;100.00;98084.78;3239750;22;20054;-76
2023/04/16 01:11:46;;;;;;;16.25;9.40;;;;;;;3.33;100.00;98081.25;3239851;22;20024;-76
2023/04/16 01:13:02;;;;;;;16.92;9.43;;;;;;;3.04;100.00;98088.28;3239524;22;20027;-76
2023/04/16 01:14:17;;;;;;;15.73;8.43;;;;;;;2.92;100.00;98089.16;3239721;22;20023;-76
2023/04/16 01:15:33;;;;;;;17.27;9.02;;;;;;;3.00;100.00;98083.13;3239796;22;20046;-76
2023/04/16 01:16:49;;;;;;;13.52;7.88;;;;;;;3.00;100.00;98086.56;3239700;22;20016;-76
2023/04/16 01:18:17;;;;;;;18.27;8.93;;;;;;;3.25;100.00;98087.34;3239737;22;20194;-76
2023/04/16 01:19:37;;;;;;;17.33;8.65;;;;;;;3.54;100.00;98082.88;3239847;22;20520;-78
2023/04/16 01:20:53;;;;;;;18.05;9.02;;;;;;;3.49;100.00;98082.94;3239588;22;20468;-76
2023/04/16 01:22:08;;;;;;;13.98;8.00;;;;;;;3.15;100.00;98085.66;3239904;22;20028;-77
2023/04/16 01:23:24;;;;;;;15.43;9.23;;;;;;;3.10;100.00;98082.25;3240760;22;20402;-76
2023/04/16 01:24:40;;;;;;;14.50;8.00;;;;;;;3.03;100.00;98080.53;3239880;22;20024;-76
2023/04/16 01:25:55;;;;;;;16.40;8.82;;;;;;;3.09;100.00;98081.38;3239601;22;20057;-76
2023/04/16 01:27:11;;;;;;;12.98;8.10;;;;;;;3.25;100.00;98078.72;3239722;22;20020;-76
2023/04/16 01:28:27;;;;;;;15.98;8.02;;;;;;;3.31;100.00;98073.53;3240637;22;20019;-77
2023/04/16 01:29:42;;;;;;;14.73;8.50;;;;;;;3.08;100.00;98078.81;3239808;22;20024;-76
2023/04/16 01:30:58;;;;;;;16.08;9.43;;;;;;;3.20;100.00;98080.47;3239586;22;20366;-76
2023/04/16 01:32:13;;;;;;;16.92;8.70;;;;;;;3.30;100.00;98084.75;3239559;22;20024;-76
2023/04/16 01:33:29;;;;;;;15.23;8.13;;;;;;;3.11;100.00;98087.38;3239898;22;20456;-76
2023/04/16 01:34:45;;;;;;;16.60;8.77;;;;;;;3.14;100.00;98089.13;3239394;22;20030;-76
2023/04/16 01:36:00;;;;;;;15.65;8.82;;;;;;;3.24;100.00;98084.75;3239665;22;20027;-76
2023/04/16 01:37:16;;;;;;;16.58;8.48;;;;;;;3.17;100.00;98089.09;3239494;22;20024;-76
2023/04/16 01:38:31;;;;;;;16.73;8.88;;;;;;;3.07;100.00;98097.75;3239668;22;20047;-76
2023/04/16 01:39:47;;;;;;;15.45;8.38;;;;;;;3.11;100.00;98094.31;3239658;22;20028;-76
2023/04/16 01:41:03;;;;;;;17.35;9.10;;;;;;;3.31;100.00;98093.34;3239616;22;20073;-76
2023/04/16 01:42:18;;;;;;;15.25;8.90;;;;;;;3.48;100.00;98094.13;3239322;22;20066;-76
2023/04/16 01:43:34;;;;;;;16.42;8.43;;;;;;;3.40;100.00;98095.91;3239637;22;20524;-76
2023/04/16 01:44:49;;;;;;;14.25;8.25;;;;;;;3.22;100.00;98100.31;3239451;22;20051;-76
2023/04/16 01:46:11;;;;;;;16.33;8.75;;;;;;;3.45;100.00;98091.56;3239466;22;20023;-76
2023/04/16 01:47:27;;;;;;;15.23;8.50;;;;;;;3.49;100.00;98098.47;3222793;23;20024;-77
2023/04/16 01:48:43;;;;;;;14.70;8.02;;;;;;;3.63;100.00;98102.69;3229458;22;20475;-77
2023/04/16 01:49:59;;;;;;;12.82;7.60;;;;;;;3.34;100.00;98099.38;3239544;22;20031;-77
2023/04/16 01:51:15;;;;;;;13.13;7.90;;;;;;;3.48;100.00;98095.88;3240113;22;20098;-77
2023/04/16 01:52:30;;;;;;;14.40;8.55;;;;;;;3.54;100.00;98101.00;3240414;22;20026;-77
2023/04/16 01:53:46;;;;;;;19.13;8.88;;;;;;;3.49;100.00;98101.06;3239711;22;20406;-76
2023/04/16 01:55:02;;;;;;;16.52;7.95;;;;;;;3.40;100.00;98095.91;3240343;22;20028;-76
2023/04/16 01:56:18;;;;;;;16.73;9.05;;;;;;;3.45;100.00;98094.16;3239708;22;20049;-77
2023/04/16 01:57:33;;;;;;;15.95;8.13;;;;;;;3.53;100.00;98097.56;3240178;22;20016;-77
2023/04/16 01:58:49;;;;;;;14.85;8.32;;;;;;;3.61;100.00;98094.06;3239555;22;20066;-76
2023/04/16 02:00:06;;;;;;;16.40;9.43;;;;;;;3.56;100.00;98090.66;3239849;22;20015;-77
2023/04/16 02:01:22;;;;;;;13.32;7.85;;;;;;;3.67;100.00;98089.72;3239328;22;20023;-77
2023/04/16 02:02:38;;;;;;;13.23;7.90;;;;;;;3.70;100.00;98099.19;3239610;22;20098;-77
2023/04/16 02:03:53;;;;;;;13.68;8.25;;;;;;;3.73;100.00;98101.75;3239500;22;20020;-76
2023/04/16 02:05:09;;;;;;;13.07;7.15;;;;;;;3.73;100.00;98099.16;3239927;22;20023;-76
2023/04/16 02:06:26;;;;;;;15.13;8.00;;;;;;;3.59;100.00;98096.69;3239390;22;20117;-77
2023/04/16 02:07:41;;;;;;;14.18;8.60;;;;;;;3.49;100.00;98101.06;3222677;23;20020;-76
2023/04/16 02:08:57;;;;;;;16.33;8.48;;;;;;;3.43;100.00;98095.88;3223727;23;20503;-76
2023/04/16 02:10:12;;;;;;;13.60;7.85;;;;;;;3.39;100.00;98096.78;3229538;22;20027;-77
2023/04/16 02:11:28;;;;;;;14.63;7.97;;;;;;;3.51;100.00;98104.47;3239570;22;20390;-76
2023/04/16 02:12:43;;;;;;;16.50;8.65;;;;;;;3.46;100.00;98103.63;3239379;22;20027;-76
2023/04/16 02:13:59;;;;;;;14.32;7.82;;;;;;;3.56;100.00;98106.19;3239757;22;20344;-76
2023/04/16 02:15:15;;;;;;;18.90;8.32;;;;;;;3.62;100.00;98103.53;3239234;22;20019;-76
2023/04/16 02:16:30;;;;;;;20.58;7.57;;;;;;;3.45;100.00;98099.31;3239398;22;20023;-76
2023/04/16 02:17:47;;;;;;;16.40;8.02;;;;;;;3.49;100.00;98101.06;3239520;22;20074;-77
2023/04/16 02:19:03;;;;;;;20.73;8.27;;;;;;;3.51;100.00;98103.59;3239968;22;20093;-77
2023/04/16 02:20:18;;;;;;;32.25;8.77;;;;;;;3.47;100.00;98107.09;3239132;22;20020;-76
2023/04/16 02:21:34;;;;;;;23.38;7.55;;;;;;;3.65;100.00;98111.31;3239374;22;20039;-77
2023/04/16 02:22:50;;;;;;;30.85;8.18;;;;;;;3.74;100.00;98113.84;3239379;22;20020;-77
2023/04/16 02:24:05;;;;;;;51.05;8.35;;;;;;;3.70;100.00;98114.72;3239662;22;20023;-76
2023/04/16 02:25:23;;;;;;;28.70;7.78;;;;;;;3.47;100.00;98112.25;3239456;22;20028;-77
2023/04/16 02:26:38;;;;;;;69.78;9.88;;;;;;;3.67;100.00;98112.16;3239432;22;20503;-76
2023/04/16 02:27:54;;;;;;;53.95;8.00;;;;;;;3.65;100.00;98106.16;3239486;22;20016;-78
2023/04/16 02:29:10;;;;;;;32.70;6.90;;;;;;;3.46;100.00;98113.97;3239533;22;20020;-77
2023/04/16 02:30:25;;;;;;;28.83;6.30;;;;;;;3.67;100.00;98109.56;3239173;22;20020;-76
2023/04/16 02:31:41;;;;;;;20.00;5.38;;;;;;;3.54;100.00;98106.19;3240161;22;20023;-76
2023/04/16 02:32:56;;;;;;;17.77;5.43;;;;;;;3.51;100.00;98113.97;3239330;22;20016;-76
2023/04/16 02:34:12;;;;;;;64.40;7.22;;;;;;;3.19;100.00;98108.06;3240080;22;20348;-76
2023/04/16 02:35:28;;;;;;;35.95;6.47;;;;;;;3.29;100.00;98119.25;3239969;22;20020;-76
2023/04/16 02:36:43;;;;;;;89.40;10.30;;;;;;;3.48;100.00;98121.75;3239436;22;20098;-76
2023/04/16 02:37:59;;;;;;;36.50;6.65;;;;;;;3.11;100.00;98112.41;3239570;22;20019;-76
2023/04/16 02:39:15;;;;;;;151.27;11.27;;;;;;;3.45;100.00;98114.84;3239603;22;20458;-76
2023/04/16 02:40:31;;;;;;;28.02;6.00;;;;;;;3.20;100.00;98116.69;3239236;22;20023;-76
2023/04/16 02:41:47;;;;;;;48.53;6.95;;;;;;;3.26;100.00;98121.81;3239108;22;20358;-76
2023/04/16 02:43:02;;;;;;;61.10;7.78;;;;;;;3.43;100.00;98120.91;3238903;22;20443;-76
2023/04/16 02:44:18;;;;;;;31.00;6.88;;;;;;;3.34;100.00;98127.84;3239410;22;20459;-78
2023/04/16 02:45:34;;;;;;;52.72;8.35;;;;;;;3.43;100.00;98126.94;3240442;22;20020;-76
2023/04/16 02:46:49;;;;;;;62.67;7.88;;;;;;;3.20;100.00;98130.47;3239405;22;20077;-76
2023/04/16 02:48:07;;;;;;;51.40;8.32;;;;;;;3.47;100.00;98128.63;3239467;22;20395;-77
2023/04/16 02:49:23;;;;;;;27.77;7.32;;;;;;;3.61;100.00;98135.47;3240242;22;20113;-77
2023/04/16 02:50:38;;;;;;;38.55;8.18;;;;;;;3.66;100.00;98134.59;3238023;22;20024;-77
2023/04/16 02:51:54;;;;;;;40.50;7.50;;;;;;;3.51;100.00;98140.72;3240195;22;20065;-77
2023/04/16 02:53:10;;;;;;;65.55;9.93;;;;;;;3.63;100.00;98133.75;3240460;22;20459;-77
2023/04/16 02:54:25;;;;;;;52.40;7.88;;;;;;;3.28;100.00;98138.19;3240358;22;20024;-77
2023/04/16 02:55:51;;;;;;;69.70;9.85;;;;;;;3.37;100.00;98142.50;3239895;22;20051;-77
2023/04/16 02:57:07;;;;;;;64.78;8.55;;;;;;;3.47;100.00;98143.31;3240047;22;20412;-77
2023/04/16 02:58:24;;;;;;;67.80;8.35;;;;;;;3.23;100.00;98142.53;3240426;22;20016;-77
2023/04/16 02:59:40;;;;;;;65.07;8.63;;;;;;;3.40;100.00;98139.91;3240369;22;20024;-77
2023/04/16 03:00:55;;;;;;;52.65;7.72;;;;;;;3.18;100.00;98144.28;3240266;22;20078;-77
2023/04/16 03:02:12;;;;;;;102.15;10.35;;;;;;;3.19;100.00;98139.09;3240387;22;20019;-77
2023/04/16 03:03:28;;;;;;;150.82;13.60;;;;;;;3.26;100.00;98139.94;3240418;22;20023;-77
2023/04/16 03:04:44;;;;;;;103.13;11.10;;;;;;;3.27;100.00;98146.00;3240428;22;20219;-76
2023/04/16 03:05:59;;;;;;;113.60;11.77;;;;;;;3.23;100.00;98143.41;3240355;22;20363;-76
2023/04/16 03:07:17;;;;;;;32.47;7.57;;;;;;;3.18;100.00;98147.72;3239986;22;20371;-76
2023/04/16 03:08:32;;;;;;;44.35;8.95;;;;;;;3.40;100.00;98147.66;3240152;22;20240;-76
2023/04/16 03:09:48;;;;;;;160.00;13.00;;;;;;;3.42;100.00;98151.09;3240288;22;20023;-77
2023/04/16 03:11:03;;;;;;;36.00;7.40;;;;;;;3.11;100.00;98146.88;3240147;22;20051;-76
2023/04/16 03:12:19;;;;;;;104.18;10.90;;;;;;;3.37;100.00;98145.09;3240279;22;20541;-77
2023/04/16 03:13:35;;;;;;;62.40;9.25;;;;;;;3.61;100.00;98156.19;3239543;22;20023;-77
2023/04/16 03:14:53;;;;;;;141.20;12.57;;;;;;;3.46;100.00;98152.81;3239531;22;20453;-76
2023/04/16 03:16:08;;;;;;;69.03;10.23;;;;;;;3.46;100.00;98149.38;3239890;22;20020;-76
2023/04/16 03:17:24;;;;;;;52.70;8.52;;;;;;;3.45;100.00;98147.66;3239927;22;20019;-76
2023/04/16 03:18:40;;;;;;;50.25;7.75;;;;;;;3.31;100.00;98152.88;3240306;22;20482;-76
2023/04/16 03:19:55;;;;;;;97.60;11.75;;;;;;;3.15;100.00;98147.75;3240060;22;20020;-76
2023/04/16 03:21:11;;;;;;;77.32;9.65;;;;;;;3.28;100.00;98150.28;3239982;22;20019;-76
2023/04/16 03:22:26;;;;;;;62.10;9.10;;;;;;;3.28;100.00;98155.47;3239995;22;20530;-76
2023/04/16 03:23:42;;;;;;;117.15;12.20;;;;;;;3.38;100.00;98155.41;3240128;22;20031;-76
2023/04/16 03:24:57;;;;;;;101.95;10.15;;;;;;;3.46;100.00;98159.72;3240069;22;20031;-76
2023/04/16 03:26:13;;;;;;;85.18;11.93;;;;;;;3.46;100.00;98165.75;3239879;22;20069;-76
2023/04/16 03:27:29;;;;;;;97.88;11.95;;;;;;;3.46;100.00;98157.97;3240151;22;20031;-76
2023/04/16 03:28:44;;;;;;;75.20;9.38;;;;;;;3.53;100.00;98170.03;3240067;22;20443;-76
2023/04/16 03:30:01;;;;;;;135.77;14.60;;;;;;;3.64;100.00;98170.00;3240237;22;20500;-76
2023/04/16 03:31:16;;;;;;;107.68;11.48;;;;;;;3.48;100.00;98165.75;3239954;22;20039;-77
2023/04/16 03:32:32;;;;;;;119.32;12.05;;;;;;;3.50;100.00;98167.47;3240377;22;20023;-76
2023/04/16 03:33:47;;;;;;;59.70;10.57;;;;;;;3.55;100.00;98164.00;3223752;23;20020;-78
2023/04/16 03:35:04;;;;;;;71.63;10.63;;;;;;;3.58;100.00;98171.75;3230155;22;20024;-77
2023/04/16 03:36:21;;;;;;;112.22;12.88;;;;;;;3.63;100.00;98172.56;3240045;22;20054;-77
2023/04/16 03:37:37;;;;;;;114.00;13.88;;;;;;;3.73;100.00;98169.09;3240420;22;20026;-76
2023/04/16 03:38:52;;;;;;;114.90;12.10;;;;;;;3.78;100.00;98163.88;3240038;22;20023;-76
2023/04/16 03:40:08;;;;;;;117.72;11.35;;;;;;;3.71;100.00;98168.22;3239161;22;20024;-77
2023/04/16 03:41:24;;;;;;;118.82;13.70;;;;;;;3.62;100.00;98174.31;3239751;22;20030;-76
2023/04/16 03:42:39;;;;;;;46.83;10.45;;;;;;;3.53;100.00;98172.63;3240692;22;20016;-76
2023/04/16 03:43:55;;;;;;;94.25;13.05;;;;;;;3.49;100.00;98175.22;3239998;22;20028;-76
2023/04/16 03:45:11;;;;;;;62.53;10.70;;;;;;;3.63;100.00;98182.94;3240291;22;20030;-76
2023/04/16 03:46:26;;;;;;;60.13;10.18;;;;;;;3.68;100.00;98179.47;3239965;22;20023;-77
2023/04/16 03:47:42;;;;;;;41.47;10.02;;;;;;;3.76;100.00;98181.16;3239711;22;20027;-76
2023/04/16 03:48:57;;;;;;;96.47;10.88;;;;;;;3.67;100.00;98188.09;3240031;22;20099;-76
2023/04/16 03:50:13;;;;;;;91.57;14.10;;;;;;;3.72;100.00;98182.91;3240022;22;20023;-76
2023/04/16 03:51:28;;;;;;;76.10;10.57;;;;;;;3.72;100.00;98184.66;3240241;22;20023;-76
2023/04/16 03:52:45;;;;;;;69.53;10.50;;;;;;;3.80;100.00;98188.91;3239979;22;20098;-76
2023/04/16 03:54:01;;;;;;;126.00;14.20;;;;;;;3.60;100.00;98186.41;3240309;22;20015;-77
2023/04/16 03:55:16;;;;;;;98.35;12.07;;;;;;;3.71;100.00;98186.34;3239904;22;20566;-77
2023/04/16 03:56:32;;;;;;;88.20;12.30;;;;;;;3.71;100.00;98186.34;3240320;22;20584;-77
2023/04/16 03:57:47;;;;;;;72.45;9.88;;;;;;;3.36;100.00;98185.63;3239714;22;20030;-77
2023/04/16 03:59:03;;;;;;;64.93;9.95;;;;;;;3.55;100.00;98182.13;3240007;22;20073;-76
2023/04/16 04:00:19;;;;;;;75.88;11.02;;;;;;;3.67;100.00;98182.06;3239887;22;20024;-76
2023/04/16 04:01:34;;;;;;;70.78;10.30;;;;;;;3.47;100.00;98190.75;3239946;22;20025;-76
2023/04/16 04:02:50;;;;;;;46.00;9.23;;;;;;;3.40;100.00;98189.06;3223122;23;20500;-76
2023/04/16 04:04:05;;;;;;;50.65;9.43;;;;;;;3.35;100.00;98186.50;3229360;22;20027;-76
2023/04/16 04:05:21;;;;;;;57.88;8.85;;;;;;;3.42;100.00;98186.47;3240011;22;20050;-76
2023/04/16 04:06:36;;;;;;;51.35;6.72;;;;;;;3.32;100.00;98185.63;3240075;22;20020;-76
2023/04/16 04:07:52;;;;;;;62.40;9.85;;;;;;;3.46;100.00;98191.63;3239676;22;20020;-76
2023/04/16 04:09:08;;;;;;;82.35;10.52;;;;;;;3.42;100.00;98192.50;3240466;22;20444;-76
2023/04/16 04:10:23;;;;;;;104.30;11.50;;;;;;;3.42;100.00;98194.22;3240664;22;20019;-76
2023/04/16 04:11:39;;;;;;;62.72;10.63;;;;;;;3.45;100.00;98196.81;3239738;22;20381;-76
2023/04/16 04:12:54;;;;;;;55.30;9.32;;;;;;;3.46;100.00;98198.53;3240080;22;20067;-75
2023/04/16 04:14:10;;;;;;;53.67;9.93;;;;;;;3.38;100.00;98190.81;3239949;22;20405;-76
2023/04/16 04:15:26;;;;;;;65.25;9.27;;;;;;;3.21;100.00;98193.44;3239882;22;20683;-76
2023/04/16 04:16:41;;;;;;;14.20;5.40;;;;;;;2.85;100.00;98196.06;3239704;22;20486;-76
2023/04/16 04:17:57;;;;;;;34.38;8.73;;;;;;;2.87;100.00;98198.69;3240342;22;20349;-76
2023/04/16 04:19:12;;;;;;;30.73;5.63;;;;;;;2.67;100.00;98200.41;3239980;22;20028;-76
2023/04/16 04:20:28;;;;;;;24.55;6.57;;;;;;;2.94;100.00;98196.06;3240026;22;20020;-77
2023/04/16 04:21:43;;;;;;;59.65;8.70;;;;;;;2.77;100.00;98197.78;3240818;22;20026;-77
2023/04/16 04:22:59;;;;;;;69.10;9.90;;;;;;;3.09;100.00;98196.91;3240145;22;20019;-77
2023/04/16 04:24:15;;;;;;;82.00;10.35;;;;;;;3.13;100.00;98200.34;3239970;22;20031;-76
2023/04/16 04:25:30;;;;;;;96.03;10.70;;;;;;;3.18;100.00;98203.78;3240155;22;20093;-77
2023/04/16 04:26:46;;;;;;;77.03;11.15;;;;;;;3.25;100.00;98206.38;3239735;22;20020;-77
2023/04/16 04:28:01;;;;;;;92.05;11.63;;;;;;;3.22;100.00;98208.97;3239930;22;20043;-77
2023/04/16 04:29:17;;;;;;;82.32;11.57;;;;;;;3.29;100.00;98211.53;3239832;22;20464;-77
2023/04/16 04:30:34;;;;;;;104.07;11.27;;;;;;;3.29;100.00;98211.53;3239477;22;20418;-77
2023/04/16 04:31:50;;;;;;;60.35;9.90;;;;;;;3.31;100.00;98210.66;3239886;22;20099;-77
2023/04/16 04:33:05;;;;;;;57.88;10.40;;;;;;;3.33;100.00;98214.09;3239763;22;20024;-77
2023/04/16 04:34:21;;;;;;;51.25;10.75;;;;;;;3.42;100.00;98210.63;3240037;22;20023;-77
2023/04/16 04:35:36;;;;;;;52.85;9.55;;;;;;;3.42;100.00;98210.63;3239845;22;20027;-77
2023/04/16 04:36:52;;;;;;;99.00;10.32;;;;;;;3.37;100.00;98225.31;3239982;22;20039;-77
2023/04/16 04:38:08;;;;;;;88.00;9.85;;;;;;;3.15;100.00;98220.16;3239060;22;20072;-76
2023/04/16 04:39:23;;;;;;;61.08;10.05;;;;;;;3.36;100.00;98221.84;3240286;22;20019;-76
2023/04/16 04:40:38;;;;;;;54.28;9.88;;;;;;;3.28;100.00;98226.16;3239852;22;20390;-77
2023/04/16 04:41:56;;;;;;;56.45;9.93;;;;;;;3.48;100.00;98228.72;3239623;22;20019;-76
2023/04/16 04:43:11;;;;;;;52.85;10.52;;;;;;;3.56;100.00;98227.84;3239707;22;20115;-77
2023/04/16 04:44:27;;;;;;;77.28;11.60;;;;;;;3.59;100.00;98227.81;3240017;22;20742;-77
2023/04/16 04:45:42;;;;;;;22.70;6.55;;;;;;;3.34;100.00;98230.47;3239857;22;20019;-76
2023/04/16 04:46:58;;;;;;;35.92;8.32;;;;;;;3.29;100.00;98227.94;3239501;22;20063;-76
2023/04/16 04:48:14;;;;;;;22.60;6.80;;;;;;;3.42;100.00;98233.03;3240118;22;20054;-76
2023/04/16 04:49:30;;;;;;;19.73;6.43;;;;;;;3.32;100.00;98227.03;3240861;22;20046;-76
2023/04/16 04:50:45;;;;;;;28.40;4.70;;;;;;;3.33;100.00;98223.56;3240149;22;20478;-76
2023/04/16 04:52:01;;;;;;;42.95;6.57;;;;;;;3.20;100.00;98230.53;3239846;22;20046;-76
2023/04/16 04:53:17;;;;;;;27.55;5.45;;;;;;;3.13;100.00;98226.19;3240361;22;20336;-76
2023/04/16 04:54:32;;;;;;;12.63;5.43;;;;;;;3.14;100.00;98223.63;3239812;22;20454;-76
2023/04/16 04:55:48;;;;;;;32.33;6.80;;;;;;;3.15;100.00;98234.84;3239903;22;20081;-77
2023/04/16 04:57:04;;;;;;;92.30;11.02;;;;;;;3.35;100.00;98239.97;3239624;22;20023;-77
2023/04/16 04:58:20;;;;;;;38.88;10.57;;;;;;;3.45;100.00;98248.59;3239781;22;20075;-78
2023/04/16 04:59:35;;;;;;;56.30;10.82;;;;;;;3.50;100.00;98252.00;3240315;22;20015;-77
2023/04/16 05:00:51;;;;;;;47.78;9.60;;;;;;;3.36;100.00;98254.66;3239718;22;20110;-77
2023/04/16 05:02:06;;;;;;;144.90;14.80;;;;;;;3.47;100.00;98254.63;3240142;22;20359;-77
2023/04/16 05:03:22;;;;;;;56.22;10.68;;;;;;;3.44;100.00;98252.88;3239877;22;20459;-77
2023/04/16 05:04:38;;;;;;;149.05;13.52;;;;;;;3.51;100.00;98248.56;3239946;22;20649;-77
2023/04/16 05:05:53;;;;;;;90.28;12.98;;;;;;;3.66;100.00;98258.03;3222796;23;20063;-75
2023/04/16 05:07:08;;;;;;;22.23;11.30;;;;;;;3.84;100.00;98262.25;3229394;22;20398;-76
2023/04/16 05:08:24;;;;;;;125.57;15.23;;;;;;;3.85;100.00;98269.19;3238460;22;20024;-76
2023/04/16 05:09:40;;;;;;;182.68;15.93;;;;;;;3.73;100.00;98274.41;3239385;22;20494;-76
2023/04/16 05:10:55;;;;;;;27.25;11.65;;;;;;;3.78;100.00;98281.28;3238660;22;20411;-76
2023/04/16 05:12:11;;;;;;;215.38;17.58;;;;;;;3.78;100.00;98281.28;3239699;22;20016;-76
2023/04/16 05:13:26;;;;;;;218.80;18.67;;;;;;;3.73;100.00;98280.44;3239719;22;20050;-76
2023/04/16 05:14:42;;;;;;;38.30;11.23;;;;;;;3.54;100.00;98284.78;3238451;22;20027;-76
2023/04/16 05:15:58;;;;;;;136.20;16.50;;;;;;;3.58;100.00;98285.66;3239691;22;20377;-76
2023/04/16 05:17:14;;;;;;;204.38;16.77;;;;;;;3.72;100.00;98278.69;3239511;22;20023;-76
2023/04/16 05:18:29;;;;;;;150.40;15.07;;;;;;;3.89;100.00;98277.78;3239363;22;20297;-76
2023/04/16 05:19:45;;;;;;;147.07;16.90;;;;;;;3.97;100.00;98281.22;3239747;22;20591;-76
2023/04/16 05:21:01;;;;;;;208.07;18.83;;;;;;;4.03;100.00;98282.91;3240215;22;20019;-76
2023/04/16 05:22:17;;;;;;;213.35;16.77;;;;;;;3.74;100.00;98282.16;3239347;22;20027;-76
2023/04/16 05:23:33;;;;;;;95.47;11.82;;;;;;;3.75;100.00;98281.28;3239731;22;20028;-76
2023/04/16 05:24:49;;;;;;;61.50;11.35;;;;;;;3.66;100.00;98276.16;3240530;22;20019;-78
2023/04/16 05:26:04;;;;;;;111.22;12.45;;;;;;;3.78;100.00;98281.28;3239940;22;20023;-76
2023/04/16 05:27:20;;;;;;;78.78;11.70;;;;;;;3.85;100.00;98273.50;3223006;23;20047;-77
2023/04/16 05:28:35;;;;;;;48.60;10.00;;;;;;;4.01;100.00;98275.16;3230171;22;20027;-77
2023/04/16 05:29:51;;;;;;;93.30;11.20;;;;;;;3.89;100.00;98277.78;3239712;22;20020;-76
2023/04/16 05:31:07;;;;;;;82.60;11.80;;;;;;;3.92;100.00;98281.22;3239811;22;20016;-77
2023/04/16 05:32:25;;;;;;;71.32;10.73;;;;;;;3.84;100.00;98276.94;3239880;22;20031;-77
2023/04/16 05:33:40;;;;;;;99.25;11.38;;;;;;;3.98;100.00;98282.94;3239861;22;20107;-76
2023/04/16 05:34:56;;;;;;;66.72;10.85;;;;;;;3.88;100.00;98273.47;3239479;22;20023;-76
2023/04/16 05:36:11;;;;;;;82.68;11.68;;;;;;;3.92;100.00;98283.81;3241010;22;20023;-76
2023/04/16 05:37:27;;;;;;;161.73;13.68;;;;;;;4.10;100.00;98279.41;3239199;22;20046;-76
2023/04/16 05:38:43;;;;;;;68.05;11.52;;;;;;;4.28;100.00;98288.84;3239242;22;20028;-75
2023/04/16 05:39:58;;;;;;;180.38;14.90;;;;;;;4.30;100.00;98281.91;3239691;22;20020;-76
2023/04/16 05:41:14;;;;;;;118.03;13.55;;;;;;;4.15;100.00;98284.59;3239722;22;20024;-76
2023/04/16 05:42:29;;;;;;;165.88;13.00;;;;;;;4.15;100.00;98282.88;3240121;22;20311;-76
2023/04/16 05:43:45;;;;;;;139.85;16.45;;;;;;;4.27;100.00;98292.31;3239834;22;20023;-76
2023/04/16 05:45:03;;;;;;;193.63;14.95;;;;;;;4.40;100.00;98290.53;3240094;22;20023;-76
2023/04/16 05:46:19;;;;;;;65.80;8.50;;;;;;;4.06;100.00;98286.38;3239747;22;20023;-75
2023/04/16 05:47:34;;;;;;;29.85;7.18;;;;;;;3.89;100.00;98289.00;3238992;22;20079;-76
2023/04/16 05:48:50;;;;;;;26.92;7.30;;;;;;;4.07;100.00;98293.28;3239610;22;20020;-76
2023/04/16 05:50:06;;;;;;;122.30;12.40;;;;;;;4.29;100.00;98292.31;3240117;22;20016;-76
2023/04/16 05:51:23;;;;;;;82.13;9.52;;;;;;;4.20;100.00;98288.88;3239285;22;20978;-77